Highlands Peak, California Weather observations

Data are for observation ending at time listed.
 Day   Time    Ave.   Ave.  Ave.  Vector   Max.   Stn.    Total    Solar   Ave.  
  of    of     Air    Rel.  Wind   Wind    Wind   Baro.  Precip.   Rad.    Soil  
Year   Day     Temp.  Hum.  Speed  Dir.    Gust   Pres.                    Temp. 
2026   (PST)    F      %     mph   deg.    mph     mb.     in.     W/m2     F   
------------------------------------------------------------------------------
 125   18:40   49.5   100    0.4    42      1.8   929.0    0.00      40    62.5
 125   18:50   49.8   100    1.2   359      2.6   929.0    0.00      23    62.5
 125   19:00   49.2   100    2.8   347      4.2   929.0    0.00      10    62.5
 125   19:10   49.8    99    2.7   300      4.1   929.1    0.00       3    62.5
 125   19:20   50.5    95    0.9   280      2.3   929.2    0.00       1    62.5
 125   19:30   50.0    96    1.7   141      4.0   929.3    0.00       0    62.5
 125   19:40   49.8    99    1.3   278      2.7   929.4    0.00       0    62.4
 125   19:50   50.6    96    2.6   298      3.0   929.4    0.00       0    62.4
 125   20:00   50.7    91    1.7   358      3.1   929.5    0.00       0    62.4
 125   20:10   50.6    89    1.9   340      3.0   929.6    0.00       0    62.4
 125   20:20   50.6    90    1.8   342      2.9   929.7    0.00       0    62.3
 125   20:30   50.1    93    1.3   287      2.1   929.9    0.00       0    62.3
 125   20:40   50.1    90    1.5   316      2.0   930.0    0.00       0    62.3
 125   20:50   50.0    89    3.2   349      6.2   930.1    0.00       0    62.2
 125   21:00   49.7    86    6.5    13      8.0   930.2    0.00       0    62.2
 125   21:10   51.0    80    5.3     6      7.8   930.3    0.00       0    62.2
 125   21:20   51.8    76    2.1   358      4.6   930.4    0.00       0    62.1
 125   21:30   51.7    76    4.1   356      6.1   930.5    0.00       0    62.0
 125   21:40   52.2    74    1.6    10      2.9   930.5    0.00       0    62.0
 125   21:50   52.7    72    1.2   353      3.5   930.5    0.00       0    61.9
 125   22:00   51.9    76    2.1    31      5.5   930.7    0.00       0    61.9
 125   22:10   51.4    76    5.1     1      6.5   930.7    0.00       0    61.8
 125   22:20   51.3    76    4.8     3      6.1   930.8    0.00       0    61.8
 125   22:30   51.8    74    3.3    21      4.2   930.8    0.00       0    61.7
 125   22:40   52.1    73    2.3    27      3.3   931.0    0.00       0    61.6
 125   22:50   52.7    71    2.0    25      4.4   931.0    0.00       0    61.6
 125   23:00   53.1    69    1.2    57      1.5   931.0    0.00       0    61.5
 125   23:10   53.5    67    1.5    58      2.1   931.1    0.00       0    61.4
 125   23:20   53.1    68    1.8    72      2.4   931.2    0.00       0    61.4
 125   23:30   53.3    68    2.6    82      3.2   931.2    0.00       0    61.4
 125   23:40   53.2    68    3.1    86      3.5   931.3    0.00       0    61.3
 125   23:50   53.0    70    2.3   106      3.4   931.4    0.00       0    61.2
 126    0:00   52.2    72    0.3   293      2.3   931.4    0.00       0    61.2
 126    0:10   51.3    76    5.2     2      7.2   931.4    0.00       0    61.1
 126    0:20   51.0    78    3.6    13      5.4   931.4    0.00       0    61.1
 126    0:30   52.4    73    3.1    38      4.1   931.4    0.00       0    61.0
 126    0:40   52.7    72    3.5    40      4.4   931.4    0.00       0    61.0
 126    0:50   53.0    72    1.7    43      2.6   931.4    0.00       0    60.9
 126    1:00   53.4    72    1.8    72      3.1   931.3    0.00       0    60.8
 126    1:10   53.1    72    2.4    88      3.5   931.3    0.00       0    60.8
 126    1:20   51.6    76    4.9     8      7.4   931.3    0.00       0    60.7
 126    1:30   51.8    76    2.6    59      4.9   931.2    0.00       0    60.7
 126    1:40   53.0    72    2.1    63      3.1   931.3    0.00       0    60.6
 126    1:50   53.1    71    2.6    36      3.3   931.3    0.00       0    60.6
 126    2:00   52.7    72    3.1    20      4.1   931.3    0.00       0    60.5
 126    2:10   52.6    72    3.8    21      5.2   931.3    0.00       0    60.4
 126    2:20   52.8    72    1.5    71      4.0   931.4    0.00       0    60.4
 126    2:30   53.5    69    1.5   248      5.8   931.4    0.00       0    60.3
 126    2:40   52.2    73    2.7   356      5.5   931.3    0.00       0    60.3
 126    2:50   52.5    71    1.5   123      2.0   931.3    0.00       0    60.2
 126    3:00   53.2    69    1.7   115      2.2   931.3    0.00       0    60.2
 126    3:10   53.3    68    1.7    59      2.2   931.3    0.00       0    60.1
 126    3:20   53.2    68    2.0    49      2.4   931.4    0.00       0    60.1
 126    3:30   53.2    68    1.6    41      2.0   931.4    0.00       0    60.0
 126    3:40   53.3    68    0.2    46      1.7   931.4    0.00       0    60.0
 126    3:50   53.5    68    1.5    50      2.3   931.3    0.00       0    59.9
 126    4:00   53.6    67    1.6    58      2.2   931.3    0.00       0    59.9
 126    4:10   53.9    66    1.8    32      2.9   931.3    0.00       0    59.8
 126    4:20   53.0    68    3.4     3      6.4   931.5    0.00       0    59.8
 126    4:30   52.8    69    2.1    41      2.6   931.5    0.00       0    59.7
 126    4:40   53.6    67    2.5    56      3.0   931.5    0.00       0    59.7
 126    4:50   53.4    68    3.1    43      3.4   931.6    0.00       0    59.6
 126    5:00   53.3    68    2.9    44      3.7   931.6    0.00       1    59.6
 126    5:10   53.3    67    3.9    50      4.6   931.7    0.00       3    59.6
 126    5:20   53.3    66    3.7    55      4.7   931.8    0.00       7    59.5
 126    5:30   53.1    67    3.3    37      4.3   931.9    0.00      12    59.4
 126    5:40   52.7    68    2.5    56      3.8   931.9    0.00      16    59.4
 126    5:50   52.0    71    1.6   219      2.4   932.0    0.00      20    59.3
 126    6:00   51.2    72    3.7   354      7.2   932.1    0.00      23    59.3
 126    6:10   52.0    69    2.7    15      5.4   932.2    0.00     107    59.2
 126    6:20   53.3    67    3.6    13      5.6   932.3    0.00     187    59.2
 126    6:30   54.5    64    2.5    55      3.7   932.3    0.00     223    59.1
 126    6:40   55.2    64    1.8   169      2.9   932.4    0.00     260    59.0
 126    6:50   54.0    68    1.1   219      2.0   932.4    0.00     297    58.9
 126    7:00   54.3    67    0.9   222      1.7   932.5    0.00     329    58.8
 126    7:10   54.1    69    1.5   230      2.0   932.5    0.00     367    58.8
 126    7:20   54.4    69    0.5   218      1.5   932.5    0.00     408    58.8
 126    7:30   56.1    67    0.2   107      1.8   932.6    0.00     445    58.8
 126    7:40   56.4    67    1.6   193      2.6   932.7    0.00     481    58.7
 126    7:50   54.7    72    1.6   230      2.6   932.7    0.00     515    58.7
 126    8:00   55.8    70    0.9   234      2.3   932.7    0.00     542    58.7
 126    8:10   55.8    70    1.5   214      2.6   932.7    0.00     582    58.6
 126    8:20   56.2    71    1.8   210      3.4   932.8    0.00     613    58.6
 126    8:30   56.4    71    1.6   203      3.1   932.8    0.00     644    58.6
 126    8:40   57.1    70    2.2   218      3.6   932.8    0.00     674    58.7
 126    8:50   57.0    71    2.9   212      3.9   932.9    0.00     703    58.7
 126    9:00   56.9    72    2.6   218      3.8   933.0    0.00     735    58.7
 126    9:10   57.3    73    2.9   218      4.7   932.9    0.00     771    58.8
 126    9:20   57.8    72    3.5   220      5.5   932.9    0.00     800    58.9
 126    9:30   57.5    73    2.9   220      4.4   932.9    0.00     826    58.9
 126    9:40   57.3    74    3.1   218      6.1   932.9    0.00     849    59.0
 126    9:50   58.0    74    3.6   220      6.0   932.9    0.00     868    59.1
 126   10:00   57.8    73    3.8   218      6.3   933.0    0.00     888    59.2
 126   10:10   57.9    72    4.1   220      6.9   933.0    0.00     905    59.3
 126   10:20   57.7    72    4.7   219      7.2   933.1    0.00     921    59.4
 126   10:30   57.5    73    5.1   224      7.5   933.1    0.00     936    59.5
 126   10:40   57.7    72    4.4   224      7.8   933.1    0.00     949    59.5
 126   10:50   57.5    73    5.2   217      7.6   933.1    0.00     958    59.6
 126   11:00   58.5    71    3.5   203      6.1   933.2    0.00     966    59.7
 126   11:10   58.9    70    4.3   216      7.6   933.1    0.00     971    59.8
 126   11:20   58.9    71    5.2   224      9.3   933.1    0.00     974    59.9
 126   11:30   59.4    71    4.8   220      8.8   933.0    0.00     974    59.9
 126   11:40   59.4    70    5.8   218      9.4   933.0    0.00     976    60.0
 126   11:50   58.6    72    5.1   222      8.4   933.0    0.00     978    60.1
 126   12:00   58.8    72    5.1   217      8.6   932.9    0.00     979    60.2
 126   12:10   59.0    71    5.4   219      9.5   932.9    0.00     978    60.3
 126   12:20   59.1    70    4.9   213      8.3   932.9    0.00     975    60.4
 126   12:30   59.5    69    6.0   217     10.2   932.8    0.00     970    60.6
 126   12:40   59.4    67    5.4   223      8.6   932.9    0.00     965    60.7
 126   12:50   59.6    66    5.4   214      8.6   932.9    0.00     957    60.8
 126   13:00   59.5    66    4.5   226      8.3   932.8    0.00     948    61.0
 126   13:10   59.7    65    4.7   213      7.7   932.8    0.00     937    61.2
 126   13:20   60.0    65    5.3   218      7.8   932.6    0.00     924    61.4
 126   13:30   60.6    65    4.8   219      7.7   932.9    0.00     911    61.6
 126   13:40   60.2    66    5.3   216      8.9   932.9    0.00     895    61.9
 126   13:50   60.2    67    4.9   212      8.6   932.9    0.00     855    62.2
 126   14:00   59.9    67    4.1   214      8.0   932.8    0.00     861    62.5
 126   14:10   61.1    66    5.2   217      7.7   932.6    0.00     842    62.8
 126   14:20   60.3    66    5.5   209      8.5   932.5    0.00     820    63.1
 126   14:30   60.5    66    5.0   226      9.1   932.5    0.00     797    63.5
 126   14:40   60.2    65    3.2   223      6.6   932.4    0.00     774    63.8
 126   14:50   60.5    65    4.5   218      7.1   932.3    0.00     749    64.1
 126   15:00   60.9    65    4.4   216      7.2   932.3    0.00     724    64.5
 126   15:10   61.7    64    3.5   232      7.0   932.3    0.00     697    64.7
 126   15:20   62.2    63    3.8   220      6.9   932.1    0.00     670    65.0
 126   15:30   62.3    62    3.3   220      5.4   932.0    0.00     641    65.3
 126   15:40   62.4    62    3.2   228      5.2   932.0    0.00     611    65.6
 126   15:50   62.2    63    2.6   229      4.9   932.0    0.00     580    65.9
 126   16:00   62.8    61    3.0   234      5.2   932.0    0.00     548    66.2
 126   16:10   62.9    61    3.1   246      5.3   932.0    0.00     515    66.5
 126   16:20   63.0    62    3.1   229      5.0   932.0    0.00     482    66.7
 126   16:30   62.4    63    3.7   244      6.7   932.0    0.00     447    67.0
 126   16:40   62.6    63    3.7   238      6.6   932.1    0.00     413    67.2
 126   16:50   62.4    65    3.4   235      6.1   932.1    0.00     378    67.4
 126   17:00   62.1    66    3.4   245      5.3   932.0    0.00     342    67.6
 126   17:10   61.4    67    3.2   236      5.6   932.1    0.00     306    67.7
 126   17:20   61.2    68    2.5   260      4.1   932.0    0.00     271    67.8
 126   17:30   62.1    66    2.0   253      4.3   932.0    0.00     237    67.9
 126   17:40   62.9    66    2.4   248      4.7   932.1    0.00     204    68.0
 126   17:50   62.7    66    2.0   267      3.4   932.1    0.00     171    68.1
 126   18:00   62.7    68    1.8   258      2.9   932.0    0.00     141    68.2
 126   18:10   62.8    68    1.8   278      2.9   932.0    0.00     113    68.3
 126   18:20   62.3    69    2.1   275      4.2   932.0    0.00      87    68.3
 126   18:30   61.7    68    3.8   280      5.8   931.9    0.00      63    68.4

Return to Highlands Peak graphs page.


Western Regional Climate Center,wrcc@dri.edu